Terminal Aerodrome Forecast
Issued by NWS Cleveland, OH

Home | Current Version | Previous Version | Graphics & Text | Print | Product List | Glossary Off
Versions: 1 2 3 4 5 6 7 8 9 10 11 12 13 14 15 16 17 18 19 20 21 22 23 24 25

000
FTUS41 KCLE 260500
TAFCAK
TAF
KCAK 260527Z 2606/2706 04012KT 1SM -SN BR SCT012 OVC020
      TEMPO 2606/2610 1/2SM SN OVC012
     FM261000 04012KT 1 1/2SM -SN BR OVC012
      TEMPO 2610/2614 3/4SM -SN BR OVC006
     FM261400 04012KT 3SM -SN BR OVC015
     FM262000 01010KT 5SM -SN OVC015
     FM262200 36010KT 6SM -SN OVC025
     FM270200 36006KT 5SM -SN BR OVC012=

USA.gov is the U.S. government's official web portal to all federal, state and local government web resources and services.